Ahtanum, Washington
Current Conditions -  °F | °C
As of 4:53 AM on Saturday 25 Oct 2014 (Local Time) from KYKM Reporting Station
Broken Clouds Broken Clouds  
Wind Chill: 45°   Ceiling: 3200
Heat Index: 49°   Visibility: 10mi
Dew Point: 47°   Wind: 8mph
Humidity: 93%   Direction: 260°W
Pressure: 29.74"   Gusts: NA
Location:  46.5979°N, 120.534°W
Report Text: KYKM 251153Z AUTO 26007KT 10SM BKN032 09/08 A2974 RMK AO2 SLP072 70020 T00940083 10100 20089 58031
Loading
Personal Weather Stations






























Interactive Weather Map
Tropical Storm Tracking
New forecast layout! Learn more

10-Day Weather Forecast

Advertisements
Track Severe Weather on mobile